sensor_id;sensor_type;location;lat;lon;timestamp;temperature;humidity
21090;DHT22;10703;51.020;6.128;2022-08-02T00:00:09;14.40;99.90
21090;DHT22;10703;51.020;6.128;2022-08-02T00:02:37;14.40;99.90
21090;DHT22;10703;51.020;6.128;2022-08-02T00:05:04;14.50;99.90
21090;DHT22;10703;51.020;6.128;2022-08-02T00:07:31;14.60;99.90
21090;DHT22;10703;51.020;6.128;2022-08-02T00:10:07;14.60;99.90
21090;DHT22;10703;51.020;6.128;2022-08-02T00:12:34;14.50;99.90
21090;DHT22;10703;51.020;6.128;2022-08-02T00:15:02;14.50;99.90
21090;DHT22;10703;51.020;6.128;2022-08-02T00:17:28;14.50;99.90
21090;DHT22;10703;51.020;6.128;2022-08-02T00:19:55;14.60;99.90
21090;DHT22;10703;51.020;6.128;2022-08-02T00:22:22;14.60;99.90
21090;DHT22;10703;51.020;6.128;2022-08-02T00:24:48;14.60;99.90
21090;DHT22;10703;51.020;6.128;2022-08-02T00:27:15;14.60;99.90
21090;DHT22;10703;51.020;6.128;2022-08-02T00:29:41;14.60;99.90
21090;DHT22;10703;51.020;6.128;2022-08-02T00:32:19;14.50;99.90
21090;DHT22;10703;51.020;6.128;2022-08-02T00:34:46;14.50;99.90
21090;DHT22;10703;51.020;6.128;2022-08-02T00:37:13;14.50;99.90
21090;DHT22;10703;51.020;6.128;2022-08-02T00:39:40;14.50;99.90
21090;DHT22;10703;51.020;6.128;2022-08-02T00:42:08;14.60;99.90
21090;DHT22;10703;51.020;6.128;2022-08-02T00:44:35;14.70;99.90
21090;DHT22;10703;51.020;6.128;2022-08-02T00:47:02;14.70;99.90
21090;DHT22;10703;51.020;6.128;2022-08-02T00:49:29;14.70;99.90
21090;DHT22;10703;51.020;6.128;2022-08-02T00:51:58;14.70;99.90
21090;DHT22;10703;51.020;6.128;2022-08-02T00:54:25;14.70;99.90
21090;DHT22;10703;51.020;6.128;2022-08-02T00:56:52;14.60;99.90
21090;DHT22;10703;51.020;6.128;2022-08-02T00:59:18;14.70;99.90
21090;DHT22;10703;51.020;6.128;2022-08-02T01:01:45;14.70;99.90
21090;DHT22;10703;51.020;6.128;2022-08-02T01:04:27;14.60;99.90
21090;DHT22;10703;51.020;6.128;2022-08-02T01:07:02;14.60;99.90
21090;DHT22;10703;51.020;6.128;2022-08-02T01:09:43;14.60;99.90
21090;DHT22;10703;51.020;6.128;2022-08-02T01:12:10;14.50;99.90
21090;DHT22;10703;51.020;6.128;2022-08-02T01:14:41;14.50;99.90
21090;DHT22;10703;51.020;6.128;2022-08-02T01:17:28;14.50;99.90
21090;DHT22;10703;51.020;6.128;2022-08-02T01:20:34;14.50;99.90
21090;DHT22;10703;51.020;6.128;2022-08-02T01:28:42;14.60;99.90
21090;DHT22;10703;51.020;6.128;2022-08-02T01:33:43;14.60;99.90
21090;DHT22;10703;51.020;6.128;2022-08-02T01:36:16;14.50;99.90
21090;DHT22;10703;51.020;6.128;2022-08-02T01:38:46;14.60;99.90
21090;DHT22;10703;51.020;6.128;2022-08-02T01:41:18;14.60;99.90
21090;DHT22;10703;51.020;6.128;2022-08-02T01:43:49;14.50;99.90
21090;DHT22;10703;51.020;6.128;2022-08-02T01:46:18;14.50;99.90
21090;DHT22;10703;51.020;6.128;2022-08-02T01:48:46;14.40;99.90
21090;DHT22;10703;51.020;6.128;2022-08-02T01:51:16;14.40;99.90
21090;DHT22;10703;51.020;6.128;2022-08-02T01:53:46;14.40;99.90
21090;DHT22;10703;51.020;6.128;2022-08-02T01:56:14;14.30;99.90
21090;DHT22;10703;51.020;6.128;2022-08-02T01:58:42;14.30;99.90
21090;DHT22;10703;51.020;6.128;2022-08-02T02:01:10;14.20;99.90
21090;DHT22;10703;51.020;6.128;2022-08-02T02:03:45;14.30;99.90
21090;DHT22;10703;51.020;6.128;2022-08-02T02:06:14;14.30;99.90
21090;DHT22;10703;51.020;6.128;2022-08-02T02:08:42;14.40;99.90
21090;DHT22;10703;51.020;6.128;2022-08-02T02:11:09;14.30;99.90
21090;DHT22;10703;51.020;6.128;2022-08-02T02:13:58;14.30;99.90
21090;DHT22;10703;51.020;6.128;2022-08-02T02:16:27;14.20;99.90
21090;DHT22;10703;51.020;6.128;2022-08-02T02:18:54;14.30;99.90
21090;DHT22;10703;51.020;6.128;2022-08-02T02:21:21;14.40;99.90
21090;DHT22;10703;51.020;6.128;2022-08-02T02:23:47;14.30;99.90
21090;DHT22;10703;51.020;6.128;2022-08-02T02:26:16;14.30;99.90
21090;DHT22;10703;51.020;6.128;2022-08-02T02:29:00;14.20;99.90
21090;DHT22;10703;51.020;6.128;2022-08-02T02:31:30;14.10;99.90
21090;DHT22;10703;51.020;6.128;2022-08-02T02:34:24;14.10;99.90
21090;DHT22;10703;51.020;6.128;2022-08-02T02:36:49;14.00;99.90
21090;DHT22;10703;51.020;6.128;2022-08-02T02:39:19;14.00;99.90
21090;DHT22;10703;51.020;6.128;2022-08-02T02:41:48;14.00;99.90
21090;DHT22;10703;51.020;6.128;2022-08-02T02:44:18;13.90;99.90
21090;DHT22;10703;51.020;6.128;2022-08-02T02:46:48;13.90;99.90
21090;DHT22;10703;51.020;6.128;2022-08-02T02:49:17;13.80;99.90
21090;DHT22;10703;51.020;6.128;2022-08-02T02:51:44;13.80;99.90
21090;DHT22;10703;51.020;6.128;2022-08-02T02:54:11;13.80;99.90
21090;DHT22;10703;51.020;6.128;2022-08-02T02:56:59;13.80;99.90
21090;DHT22;10703;51.020;6.128;2022-08-02T02:59:27;13.90;99.90
21090;DHT22;10703;51.020;6.128;2022-08-02T03:01:54;13.90;99.90
21090;DHT22;10703;51.020;6.128;2022-08-02T03:04:26;14.00;99.90
21090;DHT22;10703;51.020;6.128;2022-08-02T03:07:13;14.00;99.90
21090;DHT22;10703;51.020;6.128;2022-08-02T03:09:40;14.00;99.90
21090;DHT22;10703;51.020;6.128;2022-08-02T03:12:08;14.00;99.90
21090;DHT22;10703;51.020;6.128;2022-08-02T03:14:40;14.00;99.90
21090;DHT22;10703;51.020;6.128;2022-08-02T03:17:08;13.90;99.90
21090;DHT22;10703;51.020;6.128;2022-08-02T03:19:35;13.90;99.90
21090;DHT22;10703;51.020;6.128;2022-08-02T03:22:01;13.90;99.90
21090;DHT22;10703;51.020;6.128;2022-08-02T03:24:28;13.90;99.90
21090;DHT22;10703;51.020;6.128;2022-08-02T03:26:55;13.90;99.90
21090;DHT22;10703;51.020;6.128;2022-08-02T03:29:21;13.90;99.90
21090;DHT22;10703;51.020;6.128;2022-08-02T03:31:48;13.90;99.90
21090;DHT22;10703;51.020;6.128;2022-08-02T03:34:15;13.90;99.90
21090;DHT22;10703;51.020;6.128;2022-08-02T03:36:42;13.90;99.90
21090;DHT22;10703;51.020;6.128;2022-08-02T03:39:14;14.00;99.90
21090;DHT22;10703;51.020;6.128;2022-08-02T03:41:42;13.90;99.90
21090;DHT22;10703;51.020;6.128;2022-08-02T03:44:10;13.90;99.90
21090;DHT22;10703;51.020;6.128;2022-08-02T03:46:38;13.90;99.90
21090;DHT22;10703;51.020;6.128;2022-08-02T03:49:06;13.80;99.90
21090;DHT22;10703;51.020;6.128;2022-08-02T03:51:34;13.80;99.90
21090;DHT22;10703;51.020;6.128;2022-08-02T03:54:02;13.70;99.90
21090;DHT22;10703;51.020;6.128;2022-08-02T03:56:29;13.70;99.90
21090;DHT22;10703;51.020;6.128;2022-08-02T03:59:10;13.60;99.90
21090;DHT22;10703;51.020;6.128;2022-08-02T04:01:37;13.60;99.90
21090;DHT22;10703;51.020;6.128;2022-08-02T04:04:05;13.50;99.90
21090;DHT22;10703;51.020;6.128;2022-08-02T04:06:31;13.50;99.90
21090;DHT22;10703;51.020;6.128;2022-08-02T04:08:58;13.40;99.90
21090;DHT22;10703;51.020;6.128;2022-08-02T04:11:25;13.40;99.90
21090;DHT22;10703;51.020;6.128;2022-08-02T04:14:05;13.40;99.90
21090;DHT22;10703;51.020;6.128;2022-08-02T04:19:08;13.40;99.90
21090;DHT22;10703;51.020;6.128;2022-08-02T04:21:42;13.40;99.90
21090;DHT22;10703;51.020;6.128;2022-08-02T04:24:22;13.50;99.90
21090;DHT22;10703;51.020;6.128;2022-08-02T04:26:54;13.40;99.90
21090;DHT22;10703;51.020;6.128;2022-08-02T04:29:33;13.40;99.90
21090;DHT22;10703;51.020;6.128;2022-08-02T04:32:00;13.50;99.90
21090;DHT22;10703;51.020;6.128;2022-08-02T04:34:28;13.60;99.90
21090;DHT22;10703;51.020;6.128;2022-08-02T04:36:56;13.70;99.90
21090;DHT22;10703;51.020;6.128;2022-08-02T04:39:24;13.70;99.90
21090;DHT22;10703;51.020;6.128;2022-08-02T04:41:51;13.80;99.90
21090;DHT22;10703;51.020;6.128;2022-08-02T04:44:23;13.90;99.90
21090;DHT22;10703;51.020;6.128;2022-08-02T04:46:50;14.10;99.90
21090;DHT22;10703;51.020;6.128;2022-08-02T04:49:17;14.30;99.90
21090;DHT22;10703;51.020;6.128;2022-08-02T04:51:44;14.40;99.90
21090;DHT22;10703;51.020;6.128;2022-08-02T04:54:11;14.70;99.90
21090;DHT22;10703;51.020;6.128;2022-08-02T04:56:38;14.80;99.90
21090;DHT22;10703;51.020;6.128;2022-08-02T04:59:05;14.90;99.90
21090;DHT22;10703;51.020;6.128;2022-08-02T05:01:32;15.10;99.90
21090;DHT22;10703;51.020;6.128;2022-08-02T05:04:00;15.30;99.90
21090;DHT22;10703;51.020;6.128;2022-08-02T05:06:27;15.50;99.90
21090;DHT22;10703;51.020;6.128;2022-08-02T05:08:53;15.70;99.90
21090;DHT22;10703;51.020;6.128;2022-08-02T05:11:21;15.80;99.90
21090;DHT22;10703;51.020;6.128;2022-08-02T05:14:00;16.00;99.90
21090;DHT22;10703;51.020;6.128;2022-08-02T05:16:27;16.10;99.90
21090;DHT22;10703;51.020;6.128;2022-08-02T05:18:57;16.40;99.90
21090;DHT22;10703;51.020;6.128;2022-08-02T05:21:24;16.50;99.90
21090;DHT22;10703;51.020;6.128;2022-08-02T05:23:50;16.60;99.90
21090;DHT22;10703;51.020;6.128;2022-08-02T05:26:17;16.50;99.90
21090;DHT22;10703;51.020;6.128;2022-08-02T05:28:44;16.50;99.90
21090;DHT22;10703;51.020;6.128;2022-08-02T05:31:10;16.60;99.90
21090;DHT22;10703;51.020;6.128;2022-08-02T05:33:39;16.70;99.90
21090;DHT22;10703;51.020;6.128;2022-08-02T05:36:06;16.80;99.90
21090;DHT22;10703;51.020;6.128;2022-08-02T05:38:34;16.80;99.90
21090;DHT22;10703;51.020;6.128;2022-08-02T05:41:03;16.90;99.90
21090;DHT22;10703;51.020;6.128;2022-08-02T05:43:30;16.90;99.90
21090;DHT22;10703;51.020;6.128;2022-08-02T05:45:57;17.10;99.90
21090;DHT22;10703;51.020;6.128;2022-08-02T05:48:23;17.30;99.90
21090;DHT22;10703;51.020;6.128;2022-08-02T05:51:02;17.50;99.90
21090;DHT22;10703;51.020;6.128;2022-08-02T05:53:51;17.90;99.90
21090;DHT22;10703;51.020;6.128;2022-08-02T05:56:32;18.00;99.90
21090;DHT22;10703;51.020;6.128;2022-08-02T06:02:03;18.40;99.90
21090;DHT22;10703;51.020;6.128;2022-08-02T06:04:56;18.50;99.90
21090;DHT22;10703;51.020;6.128;2022-08-02T06:07:24;18.70;99.90
21090;DHT22;10703;51.020;6.128;2022-08-02T06:09:51;18.90;99.90
21090;DHT22;10703;51.020;6.128;2022-08-02T06:12:18;19.10;99.90
21090;DHT22;10703;51.020;6.128;2022-08-02T06:14:46;19.40;99.90
21090;DHT22;10703;51.020;6.128;2022-08-02T06:17:19;19.40;99.90
21090;DHT22;10703;51.020;6.128;2022-08-02T06:19:47;19.50;99.90
21090;DHT22;10703;51.020;6.128;2022-08-02T06:22:19;19.80;99.90
21090;DHT22;10703;51.020;6.128;2022-08-02T06:25:01;19.90;99.90
21090;DHT22;10703;51.020;6.128;2022-08-02T06:27:29;20.00;99.90
21090;DHT22;10703;51.020;6.128;2022-08-02T06:29:56;20.20;99.90
21090;DHT22;10703;51.020;6.128;2022-08-02T06:32:25;20.20;99.90
21090;DHT22;10703;51.020;6.128;2022-08-02T06:34:52;20.30;99.90
21090;DHT22;10703;51.020;6.128;2022-08-02T06:42:49;20.50;99.90
21090;DHT22;10703;51.020;6.128;2022-08-02T06:45:17;20.60;99.90
21090;DHT22;10703;51.020;6.128;2022-08-02T06:47:44;20.90;99.90
21090;DHT22;10703;51.020;6.128;2022-08-02T06:50:10;21.20;99.90
21090;DHT22;10703;51.020;6.128;2022-08-02T06:52:37;21.60;99.90
21090;DHT22;10703;51.020;6.128;2022-08-02T06:55:05;22.00;99.90
21090;DHT22;10703;51.020;6.128;2022-08-02T06:57:32;22.40;99.90
21090;DHT22;10703;51.020;6.128;2022-08-02T06:59:59;22.80;99.90
21090;DHT22;10703;51.020;6.128;2022-08-02T07:02:29;23.00;99.90
21090;DHT22;10703;51.020;6.128;2022-08-02T07:04:56;23.30;99.90
21090;DHT22;10703;51.020;6.128;2022-08-02T07:07:23;23.80;99.90
21090;DHT22;10703;51.020;6.128;2022-08-02T07:09:50;24.10;99.90
21090;DHT22;10703;51.020;6.128;2022-08-02T07:12:28;24.60;99.90
21090;DHT22;10703;51.020;6.128;2022-08-02T07:14:55;24.70;99.90
21090;DHT22;10703;51.020;6.128;2022-08-02T07:17:22;24.80;99.90
21090;DHT22;10703;51.020;6.128;2022-08-02T07:19:48;25.20;99.90
21090;DHT22;10703;51.020;6.128;2022-08-02T07:22:15;25.80;99.90
21090;DHT22;10703;51.020;6.128;2022-08-02T07:24:44;26.50;99.90
21090;DHT22;10703;51.020;6.128;2022-08-02T07:27:10;27.00;99.90
21090;DHT22;10703;51.020;6.128;2022-08-02T07:29:39;27.40;99.90
21090;DHT22;10703;51.020;6.128;2022-08-02T07:32:17;27.50;99.90
21090;DHT22;10703;51.020;6.128;2022-08-02T07:34:45;27.80;99.90
21090;DHT22;10703;51.020;6.128;2022-08-02T07:37:20;27.60;99.90
21090;DHT22;10703;51.020;6.128;2022-08-02T07:40:08;28.00;99.90
21090;DHT22;10703;51.020;6.128;2022-08-02T07:42:42;28.00;99.90
21090;DHT22;10703;51.020;6.128;2022-08-02T07:45:10;27.80;99.90
21090;DHT22;10703;51.020;6.128;2022-08-02T07:47:38;27.30;99.90
21090;DHT22;10703;51.020;6.128;2022-08-02T07:50:06;26.80;99.90
21090;DHT22;10703;51.020;6.128;2022-08-02T07:52:34;26.30;99.90
21090;DHT22;10703;51.020;6.128;2022-08-02T07:55:00;25.80;99.90
21090;DHT22;10703;51.020;6.128;2022-08-02T07:57:27;26.20;99.90
21090;DHT22;10703;51.020;6.128;2022-08-02T07:59:54;26.60;99.90
21090;DHT22;10703;51.020;6.128;2022-08-02T08:02:20;26.60;99.90
21090;DHT22;10703;51.020;6.128;2022-08-02T08:04:49;26.70;99.90
21090;DHT22;10703;51.020;6.128;2022-08-02T08:07:16;26.50;99.90
21090;DHT22;10703;51.020;6.128;2022-08-02T08:09:43;25.80;99.90
21090;DHT22;10703;51.020;6.128;2022-08-02T08:12:11;26.40;99.90
21090;DHT22;10703;51.020;6.128;2022-08-02T08:14:38;26.90;99.90
21090;DHT22;10703;51.020;6.128;2022-08-02T08:17:05;26.50;99.90
21090;DHT22;10703;51.020;6.128;2022-08-02T08:19:33;26.80;99.90
21090;DHT22;10703;51.020;6.128;2022-08-02T08:22:18;26.20;99.90
21090;DHT22;10703;51.020;6.128;2022-08-02T08:24:45;25.70;99.90
21090;DHT22;10703;51.020;6.128;2022-08-02T08:27:13;25.80;99.90
21090;DHT22;10703;51.020;6.128;2022-08-02T08:29:41;25.80;99.90
21090;DHT22;10703;51.020;6.128;2022-08-02T08:32:09;26.10;99.90
21090;DHT22;10703;51.020;6.128;2022-08-02T08:34:41;26.40;99.90
21090;DHT22;10703;51.020;6.128;2022-08-02T08:37:08;26.60;99.90
21090;DHT22;10703;51.020;6.128;2022-08-02T08:39:43;26.50;99.90
21090;DHT22;10703;51.020;6.128;2022-08-02T08:42:27;26.50;99.90
21090;DHT22;10703;51.020;6.128;2022-08-02T08:44:55;26.50;99.90
21090;DHT22;10703;51.020;6.128;2022-08-02T08:47:35;26.60;99.90
21090;DHT22;10703;51.020;6.128;2022-08-02T08:52:35;27.30;99.90
21090;DHT22;10703;51.020;6.128;2022-08-02T08:55:08;27.20;99.90
21090;DHT22;10703;51.020;6.128;2022-08-02T08:57:39;27.40;99.90
21090;DHT22;10703;51.020;6.128;2022-08-02T09:00:09;27.20;99.90
21090;DHT22;10703;51.020;6.128;2022-08-02T09:02:40;27.00;99.90
21090;DHT22;10703;51.020;6.128;2022-08-02T09:05:13;27.00;99.90
21090;DHT22;10703;51.020;6.128;2022-08-02T09:07:41;27.30;99.90
21090;DHT22;10703;51.020;6.128;2022-08-02T09:13:13;27.90;99.90
21090;DHT22;10703;51.020;6.128;2022-08-02T09:16:04;28.00;99.90
21090;DHT22;10703;51.020;6.128;2022-08-02T09:18:41;28.50;99.90
21090;DHT22;10703;51.020;6.128;2022-08-02T09:21:10;29.20;99.90
21090;DHT22;10703;51.020;6.128;2022-08-02T09:23:42;29.20;99.90
21090;DHT22;10703;51.020;6.128;2022-08-02T09:26:12;28.80;99.90
21090;DHT22;10703;51.020;6.128;2022-08-02T09:28:41;28.90;99.90
21090;DHT22;10703;51.020;6.128;2022-08-02T09:31:09;28.90;99.90
21090;DHT22;10703;51.020;6.128;2022-08-02T09:33:38;28.70;99.90
21090;DHT22;10703;51.020;6.128;2022-08-02T09:36:12;28.20;99.90
21090;DHT22;10703;51.020;6.128;2022-08-02T09:38:40;28.50;99.90
21090;DHT22;10703;51.020;6.128;2022-08-02T09:41:22;28.50;99.90
21090;DHT22;10703;51.020;6.128;2022-08-02T09:43:50;28.20;99.90
21090;DHT22;10703;51.020;6.128;2022-08-02T09:46:36;28.30;99.90
21090;DHT22;10703;51.020;6.128;2022-08-02T09:49:08;28.60;99.90
21090;DHT22;10703;51.020;6.128;2022-08-02T09:51:37;27.90;99.90
21090;DHT22;10703;51.020;6.128;2022-08-02T09:54:09;28.10;99.90
21090;DHT22;10703;51.020;6.128;2022-08-02T09:56:41;29.10;99.90
21090;DHT22;10703;51.020;6.128;2022-08-02T09:59:09;29.40;99.90
21090;DHT22;10703;51.020;6.128;2022-08-02T10:01:37;29.50;99.90
21090;DHT22;10703;51.020;6.128;2022-08-02T10:04:07;30.00;99.90
21090;DHT22;10703;51.020;6.128;2022-08-02T10:06:46;29.60;99.90
21090;DHT22;10703;51.020;6.128;2022-08-02T10:09:14;29.30;99.90
21090;DHT22;10703;51.020;6.128;2022-08-02T10:11:41;29.30;99.90
21090;DHT22;10703;51.020;6.128;2022-08-02T10:14:09;29.10;99.90
21090;DHT22;10703;51.020;6.128;2022-08-02T10:16:38;29.20;99.90
21090;DHT22;10703;51.020;6.128;2022-08-02T10:19:06;29.50;99.90
21090;DHT22;10703;51.020;6.128;2022-08-02T10:21:43;29.90;99.90
21090;DHT22;10703;51.020;6.128;2022-08-02T10:24:17;29.80;99.90
21090;DHT22;10703;51.020;6.128;2022-08-02T10:26:47;30.10;99.90
21090;DHT22;10703;51.020;6.128;2022-08-02T10:29:19;29.50;99.90
21090;DHT22;10703;51.020;6.128;2022-08-02T10:31:50;29.70;99.90
21090;DHT22;10703;51.020;6.128;2022-08-02T10:34:23;29.10;99.90
21090;DHT22;10703;51.020;6.128;2022-08-02T10:37:01;29.20;99.90
21090;DHT22;10703;51.020;6.128;2022-08-02T10:39:36;29.80;99.90
21090;DHT22;10703;51.020;6.128;2022-08-02T10:42:03;29.70;99.90
21090;DHT22;10703;51.020;6.128;2022-08-02T10:44:31;30.10;99.90
21090;DHT22;10703;51.020;6.128;2022-08-02T10:49:58;30.40;99.90
21090;DHT22;10703;51.020;6.128;2022-08-02T10:52:26;31.20;99.90
21090;DHT22;10703;51.020;6.128;2022-08-02T10:57:27;30.40;99.90
21090;DHT22;10703;51.020;6.128;2022-08-02T11:00:10;30.60;99.90
21090;DHT22;10703;51.020;6.128;2022-08-02T11:02:44;30.10;99.90
21090;DHT22;10703;51.020;6.128;2022-08-02T11:05:14;29.70;99.90
21090;DHT22;10703;51.020;6.128;2022-08-02T11:07:47;29.60;99.90
21090;DHT22;10703;51.020;6.128;2022-08-02T11:13:06;28.50;99.90
21090;DHT22;10703;51.020;6.128;2022-08-02T11:15:56;29.30;99.90
21090;DHT22;10703;51.020;6.128;2022-08-02T11:23:48;30.40;99.90
21090;DHT22;10703;51.020;6.128;2022-08-02T11:28:58;29.50;99.90
21090;DHT22;10703;51.020;6.128;2022-08-02T11:31:26;29.90;99.90
21090;DHT22;10703;51.020;6.128;2022-08-02T11:33:53;30.10;99.90
21090;DHT22;10703;51.020;6.128;2022-08-02T11:36:20;30.30;99.90
21090;DHT22;10703;51.020;6.128;2022-08-02T11:38:48;29.90;99.90
21090;DHT22;10703;51.020;6.128;2022-08-02T11:41:22;29.90;99.90
21090;DHT22;10703;51.020;6.128;2022-08-02T11:44:08;29.50;99.90
21090;DHT22;10703;51.020;6.128;2022-08-02T11:46:35;29.10;99.90
21090;DHT22;10703;51.020;6.128;2022-08-02T11:49:17;29.60;99.90
21090;DHT22;10703;51.020;6.128;2022-08-02T11:51:55;29.40;99.90
21090;DHT22;10703;51.020;6.128;2022-08-02T11:54:30;29.60;99.90
21090;DHT22;10703;51.020;6.128;2022-08-02T11:59:48;29.50;99.90
21090;DHT22;10703;51.020;6.128;2022-08-02T12:02:16;29.40;99.90
21090;DHT22;10703;51.020;6.128;2022-08-02T12:04:51;29.50;99.90
21090;DHT22;10703;51.020;6.128;2022-08-02T12:07:26;30.00;99.90
21090;DHT22;10703;51.020;6.128;2022-08-02T12:10:09;30.20;99.90
21090;DHT22;10703;51.020;6.128;2022-08-02T12:12:56;31.20;99.10
21090;DHT22;10703;51.020;6.128;2022-08-02T12:15:31;31.50;98.90
21090;DHT22;10703;51.020;6.128;2022-08-02T12:17:59;31.50;99.10
21090;DHT22;10703;51.020;6.128;2022-08-02T12:20:45;31.10;98.80
21090;DHT22;10703;51.020;6.128;2022-08-02T12:23:12;30.80;99.00
21090;DHT22;10703;51.020;6.128;2022-08-02T12:25:39;31.10;99.10
21090;DHT22;10703;51.020;6.128;2022-08-02T12:30:59;30.90;99.10
21090;DHT22;10703;51.020;6.128;2022-08-02T12:33:42;30.60;98.60
21090;DHT22;10703;51.020;6.128;2022-08-02T12:36:17;30.50;99.30
21090;DHT22;10703;51.020;6.128;2022-08-02T12:38:57;30.60;99.50
21090;DHT22;10703;51.020;6.128;2022-08-02T12:41:26;30.30;99.40
21090;DHT22;10703;51.020;6.128;2022-08-02T12:43:58;30.20;99.20
21090;DHT22;10703;51.020;6.128;2022-08-02T12:46:25;30.80;98.80
21090;DHT22;10703;51.020;6.128;2022-08-02T12:48:51;30.80;98.00
21090;DHT22;10703;51.020;6.128;2022-08-02T12:51:38;31.10;97.60
21090;DHT22;10703;51.020;6.128;2022-08-02T12:54:26;31.40;97.60
21090;DHT22;10703;51.020;6.128;2022-08-02T12:56:56;31.20;97.20
21090;DHT22;10703;51.020;6.128;2022-08-02T12:59:35;31.90;97.70
21090;DHT22;10703;51.020;6.128;2022-08-02T13:02:10;32.20;96.60
21090;DHT22;10703;51.020;6.128;2022-08-02T13:04:38;32.90;96.40
21090;DHT22;10703;51.020;6.128;2022-08-02T13:07:05;32.70;96.30
21090;DHT22;10703;51.020;6.128;2022-08-02T13:09:37;33.10;95.50
21090;DHT22;10703;51.020;6.128;2022-08-02T13:12:05;32.90;95.40
21090;DHT22;10703;51.020;6.128;2022-08-02T13:14:33;32.60;95.20
21090;DHT22;10703;51.020;6.128;2022-08-02T13:17:07;32.80;95.70
21090;DHT22;10703;51.020;6.128;2022-08-02T13:19:35;32.00;95.40
21090;DHT22;10703;51.020;6.128;2022-08-02T13:22:02;32.20;96.10
21090;DHT22;10703;51.020;6.128;2022-08-02T13:24:31;32.60;96.00
21090;DHT22;10703;51.020;6.128;2022-08-02T13:27:05;32.00;95.90
21090;DHT22;10703;51.020;6.128;2022-08-02T13:29:35;32.00;95.40
21090;DHT22;10703;51.020;6.128;2022-08-02T13:32:01;32.80;95.60
21090;DHT22;10703;51.020;6.128;2022-08-02T13:34:28;33.10;95.40
21090;DHT22;10703;51.020;6.128;2022-08-02T13:36:55;33.00;95.00
21090;DHT22;10703;51.020;6.128;2022-08-02T13:39:21;33.60;95.70
21090;DHT22;10703;51.020;6.128;2022-08-02T13:41:48;34.00;94.70
21090;DHT22;10703;51.020;6.128;2022-08-02T13:44:16;33.90;94.20
21090;DHT22;10703;51.020;6.128;2022-08-02T13:46:43;33.60;93.60
21090;DHT22;10703;51.020;6.128;2022-08-02T13:49:12;33.10;94.00
21090;DHT22;10703;51.020;6.128;2022-08-02T13:51:48;33.30;93.80
21090;DHT22;10703;51.020;6.128;2022-08-02T13:54:16;33.20;94.30
21090;DHT22;10703;51.020;6.128;2022-08-02T13:56:43;33.90;94.10
21090;DHT22;10703;51.020;6.128;2022-08-02T13:59:09;34.10;94.60
21090;DHT22;10703;51.020;6.128;2022-08-02T14:01:57;34.40;93.80
21090;DHT22;10703;51.020;6.128;2022-08-02T14:04:25;34.40;93.70
21090;DHT22;10703;51.020;6.128;2022-08-02T14:06:52;34.10;93.50
21090;DHT22;10703;51.020;6.128;2022-08-02T14:09:19;33.90;93.50
21090;DHT22;10703;51.020;6.128;2022-08-02T14:11:45;34.20;93.10
21090;DHT22;10703;51.020;6.128;2022-08-02T14:14:12;34.50;93.20
21090;DHT22;10703;51.020;6.128;2022-08-02T14:16:44;34.50;93.20
21090;DHT22;10703;51.020;6.128;2022-08-02T14:19:11;33.90;93.50
21090;DHT22;10703;51.020;6.128;2022-08-02T14:21:43;34.30;93.00
21090;DHT22;10703;51.020;6.128;2022-08-02T14:24:14;33.50;93.20
21090;DHT22;10703;51.020;6.128;2022-08-02T14:26:42;32.90;93.50
21090;DHT22;10703;51.020;6.128;2022-08-02T14:29:09;32.90;94.00
21090;DHT22;10703;51.020;6.128;2022-08-02T14:31:35;33.40;93.40
21090;DHT22;10703;51.020;6.128;2022-08-02T14:34:09;33.80;93.10
21090;DHT22;10703;51.020;6.128;2022-08-02T14:36:36;33.80;93.20
21090;DHT22;10703;51.020;6.128;2022-08-02T14:39:04;33.70;93.30
21090;DHT22;10703;51.020;6.128;2022-08-02T14:41:31;33.30;93.10
21090;DHT22;10703;51.020;6.128;2022-08-02T14:44:19;33.30;93.20
21090;DHT22;10703;51.020;6.128;2022-08-02T14:46:45;33.40;93.40
21090;DHT22;10703;51.020;6.128;2022-08-02T14:49:16;34.20;93.20
21090;DHT22;10703;51.020;6.128;2022-08-02T14:51:53;34.10;92.20
21090;DHT22;10703;51.020;6.128;2022-08-02T14:54:20;33.30;92.20
21090;DHT22;10703;51.020;6.128;2022-08-02T14:56:58;32.70;92.60
21090;DHT22;10703;51.020;6.128;2022-08-02T14:59:25;33.40;92.50
21090;DHT22;10703;51.020;6.128;2022-08-02T15:01:51;33.30;92.30
21090;DHT22;10703;51.020;6.128;2022-08-02T15:04:18;33.20;91.80
21090;DHT22;10703;51.020;6.128;2022-08-02T15:06:45;33.30;92.00
21090;DHT22;10703;51.020;6.128;2022-08-02T15:09:12;34.00;91.60
21090;DHT22;10703;51.020;6.128;2022-08-02T15:11:41;33.30;91.90
21090;DHT22;10703;51.020;6.128;2022-08-02T15:14:15;34.00;91.80
21090;DHT22;10703;51.020;6.128;2022-08-02T15:16:48;33.70;91.30
21090;DHT22;10703;51.020;6.128;2022-08-02T15:19:22;33.40;91.90
21090;DHT22;10703;51.020;6.128;2022-08-02T15:22:02;33.30;91.60
21090;DHT22;10703;51.020;6.128;2022-08-02T15:24:29;33.40;91.70
21090;DHT22;10703;51.020;6.128;2022-08-02T15:26:55;33.20;91.70
21090;DHT22;10703;51.020;6.128;2022-08-02T15:29:22;33.00;92.00
21090;DHT22;10703;51.020;6.128;2022-08-02T15:31:49;33.10;92.00
21090;DHT22;10703;51.020;6.128;2022-08-02T15:34:15;33.40;91.60
21090;DHT22;10703;51.020;6.128;2022-08-02T15:36:44;33.00;91.50
21090;DHT22;10703;51.020;6.128;2022-08-02T15:39:11;33.60;91.50
21090;DHT22;10703;51.020;6.128;2022-08-02T15:41:37;33.60;91.40
21090;DHT22;10703;51.020;6.128;2022-08-02T15:44:07;33.60;91.40
21090;DHT22;10703;51.020;6.128;2022-08-02T15:46:35;33.50;91.20
21090;DHT22;10703;51.020;6.128;2022-08-02T15:49:02;33.50;91.20
21090;DHT22;10703;51.020;6.128;2022-08-02T15:51:29;33.20;91.30
21090;DHT22;10703;51.020;6.128;2022-08-02T15:53:55;33.60;91.50
21090;DHT22;10703;51.020;6.128;2022-08-02T15:56:22;33.60;90.50
21090;DHT22;10703;51.020;6.128;2022-08-02T15:58:50;33.40;90.80
21090;DHT22;10703;51.020;6.128;2022-08-02T16:01:21;33.40;91.30
21090;DHT22;10703;51.020;6.128;2022-08-02T16:03:47;33.60;91.00
21090;DHT22;10703;51.020;6.128;2022-08-02T16:06:14;33.80;90.70
21090;DHT22;10703;51.020;6.128;2022-08-02T16:08:41;33.50;91.40
21090;DHT22;10703;51.020;6.128;2022-08-02T16:11:20;33.90;91.40
21090;DHT22;10703;51.020;6.128;2022-08-02T16:13:47;34.10;91.10
21090;DHT22;10703;51.020;6.128;2022-08-02T16:16:25;34.20;91.50
21090;DHT22;10703;51.020;6.128;2022-08-02T16:18:52;33.80;91.10
21090;DHT22;10703;51.020;6.128;2022-08-02T16:21:19;34.10;91.40
21090;DHT22;10703;51.020;6.128;2022-08-02T16:23:48;33.40;91.30
21090;DHT22;10703;51.020;6.128;2022-08-02T16:26:31;33.30;91.60
21090;DHT22;10703;51.020;6.128;2022-08-02T16:29:01;32.90;92.00
21090;DHT22;10703;51.020;6.128;2022-08-02T16:31:28;32.80;92.10
21090;DHT22;10703;51.020;6.128;2022-08-02T16:33:55;32.70;92.30
21090;DHT22;10703;51.020;6.128;2022-08-02T16:36:24;32.90;92.40